Time;durP1;ratioP1;P1;durP2;ratioP2;P2;SDS_P1;SDS_P2;PMS_P1;PMS_P2;Temp;Humidity;BMP_temperature;BMP_pressure;BME280_temperature;BME280_humidity;BME280_pressure;Samples;Min_cycle;Max_cycle;Signal;HPM_P1;HPM_P2
2021/05/11 00:00:57;;;;;;;18.75;11.32;;;10.60;87.20;;;;;;5052419;28;20017;-77
2021/05/11 00:03:23;;;;;;;14.70;8.50;;;10.60;87.70;;;;;;5052394;28;20025;-77
2021/05/11 00:05:48;;;;;;;13.65;7.40;;;10.50;88.50;;;;;;5052335;28;20104;-77
2021/05/11 00:08:14;;;;;;;12.73;6.30;;;10.50;88.50;;;;;;5052355;28;20064;-77
2021/05/11 00:10:40;;;;;;;9.30;6.22;;;10.50;87.40;;;;;;5052287;28;20467;-77
2021/05/11 00:13:05;;;;;;;8.75;6.07;;;10.50;87.20;;;;;;5052566;28;20025;-77
2021/05/11 00:15:31;;;;;;;12.88;7.30;;;10.40;87.60;;;;;;5056209;28;20470;-77
2021/05/11 00:17:57;;;;;;;12.90;6.22;;;10.50;87.70;;;;;;5057302;28;20043;-77
2021/05/11 00:20:23;;;;;;;7.75;5.85;;;10.40;87.50;;;;;;5056131;28;20021;-77
2021/05/11 00:22:48;;;;;;;9.52;5.07;;;10.40;87.20;;;;;;5057122;28;20028;-76
2021/05/11 00:25:14;;;;;;;7.75;5.13;;;10.40;86.80;;;;;;5056057;28;20021;-77
2021/05/11 00:27:41;;;;;;;7.78;6.07;;;10.40;86.80;;;;;;5055813;28;20028;-77
2021/05/11 00:30:10;;;;;;;10.43;6.25;;;10.40;87.80;;;;;;5055834;28;20013;-77
2021/05/11 00:32:36;;;;;;;8.93;5.65;;;10.40;88.00;;;;;;5054584;28;20017;-77
2021/05/11 00:35:01;;;;;;;10.52;6.07;;;10.50;87.90;;;;;;5055865;28;20025;-77
2021/05/11 00:37:27;;;;;;;7.93;5.60;;;10.50;88.20;;;;;;5054566;28;20025;-77
2021/05/11 00:39:53;;;;;;;10.32;6.38;;;10.50;87.80;;;;;;5069438;28;20500;-77
2021/05/11 00:42:18;;;;;;;11.60;7.57;;;10.40;88.40;;;;;;5074211;28;20021;-77
2021/05/11 00:44:44;;;;;;;7.25;5.32;;;10.40;87.60;;;;;;5074425;28;20020;-77
2021/05/11 00:47:10;;;;;;;8.48;5.60;;;10.70;83.00;;;;;;5074212;28;20531;-77
2021/05/11 00:49:37;;;;;;;7.13;4.82;;;10.80;81.60;;;;;;5074331;28;20032;-77
2021/05/11 00:52:05;;;;;;;6.40;4.00;;;10.80;82.80;;;;;;5074220;28;20025;-77
2021/05/11 00:54:31;;;;;;;6.43;4.55;;;10.90;81.00;;;;;;5075488;28;20025;-77
2021/05/11 00:56:57;;;;;;;5.15;4.07;;;11.10;79.10;;;;;;5075293;28;20497;-76
2021/05/11 00:59:27;;;;;;;5.45;3.90;;;11.20;76.90;;;;;;5073742;28;20032;-77
2021/05/11 01:01:54;;;;;;;5.22;4.57;;;11.40;75.60;;;;;;5075294;28;20027;-77
2021/05/11 01:04:20;;;;;;;11.32;5.00;;;11.50;75.90;;;;;;5075233;28;20562;-77
2021/05/11 01:06:46;;;;;;;11.38;4.88;;;11.50;76.00;;;;;;5075246;28;20020;-77
2021/05/11 01:09:12;;;;;;;6.78;4.70;;;11.50;75.80;;;;;;5073821;28;20440;-77
2021/05/11 01:11:38;;;;;;;6.35;4.35;;;11.50;76.70;;;;;;5075156;28;20028;-77
2021/05/11 01:14:05;;;;;;;7.82;5.07;;;11.50;76.70;;;;;;5064015;28;20116;-77
2021/05/11 01:16:32;;;;;;;5.75;4.03;;;11.50;76.70;;;;;;5055239;28;20049;-77
2021/05/11 01:19:04;;;;;;;7.68;4.20;;;11.60;74.70;;;;;;5055084;28;20474;-76
2021/05/11 01:24:05;;;;;;;6.38;4.82;;;11.60;74.20;;;;;;5054151;28;20033;-77
2021/05/11 01:55:41;;;;;;;5.95;4.82;;;11.80;71.80;;;;;;5074807;28;20133;-76
2021/05/11 02:25:03;;;;;;;6.25;4.53;;;12.00;69.00;;;;;;5054090;28;20033;-77
2021/05/11 02:27:29;;;;;;;10.10;4.57;;;12.10;68.40;;;;;;5052338;28;20079;-77
2021/05/11 02:29:55;;;;;;;6.35;3.83;;;12.20;67.80;;;;;;5052488;28;20021;-77
2021/05/11 02:32:20;;;;;;;7.25;4.82;;;12.30;67.00;;;;;;5062845;28;20103;-77
2021/05/11 02:34:46;;;;;;;9.45;4.53;;;12.40;67.30;;;;;;5073602;28;20016;-77
2021/05/11 02:37:12;;;;;;;8.77;4.60;;;12.40;68.30;;;;;;5072026;28;20081;-77
2021/05/11 02:39:38;;;;;;;6.50;4.47;;;12.40;67.10;;;;;;5073529;28;20024;-77
2021/05/11 02:42:05;;;;;;;5.10;3.88;;;12.40;67.10;;;;;;5073447;28;20029;-77
2021/05/11 02:44:38;;;;;;;7.57;4.40;;;12.40;66.40;;;;;;5073397;28;20020;-77
2021/05/11 02:47:04;;;;;;;5.50;4.05;;;12.50;66.10;;;;;;5073348;28;20444;-77
2021/05/11 02:49:29;;;;;;;10.38;5.10;;;12.50;65.80;;;;;;5072022;28;20040;-77
2021/05/11 02:51:55;;;;;;;6.50;3.95;;;12.50;65.60;;;;;;5073165;28;20390;-77
2021/05/11 02:54:21;;;;;;;7.20;5.45;;;12.60;65.40;;;;;;5073179;28;20029;-77
2021/05/11 02:56:46;;;;;;;5.03;3.55;;;12.60;65.40;;;;;;5063583;28;20047;-77
2021/05/11 02:59:12;;;;;;;7.65;4.40;;;12.60;65.20;;;;;;5053124;28;20500;-77
2021/05/11 03:01:38;;;;;;;9.85;4.90;;;12.60;66.10;;;;;;5053056;28;20506;-77
2021/05/11 03:04:04;;;;;;;6.45;4.28;;;12.60;65.70;;;;;;5052834;28;20037;-77
2021/05/11 03:06:29;;;;;;;6.63;4.70;;;12.60;65.20;;;;;;5052951;28;20112;-76
2021/05/11 03:08:55;;;;;;;5.38;4.07;;;12.60;65.20;;;;;;5053001;28;20159;-77
2021/05/11 03:11:21;;;;;;;5.22;3.85;;;12.70;65.40;;;;;;5051505;28;20033;-77
2021/05/11 03:13:46;;;;;;;6.35;3.83;;;12.60;65.50;;;;;;5052926;28;20025;-76
2021/05/11 03:16:12;;;;;;;6.35;3.80;;;12.60;65.30;;;;;;5052907;28;20017;-77
2021/05/11 03:18:37;;;;;;;8.43;4.07;;;12.70;65.20;;;;;;5052755;28;20033;-77
2021/05/11 03:21:03;;;;;;;6.28;4.25;;;12.70;64.70;;;;;;5053085;28;20029;-77
2021/05/11 03:23:29;;;;;;;5.97;3.83;;;12.70;64.70;;;;;;5062997;28;20037;-77
2021/05/11 03:25:54;;;;;;;7.25;4.60;;;12.80;64.50;;;;;;5072857;28;20021;-77
2021/05/11 03:28:20;;;;;;;7.95;3.78;;;12.80;64.60;;;;;;5071247;28;20321;-77
2021/05/11 03:30:46;;;;;;;5.55;3.95;;;12.80;64.90;;;;;;5071365;28;20066;-77
2021/05/11 03:33:11;;;;;;;7.20;4.53;;;12.80;64.80;;;;;;5072705;28;20040;-77
2021/05/11 03:35:37;;;;;;;4.28;3.75;;;12.80;64.60;;;;;;5072719;28;20020;-77
2021/05/11 03:38:05;;;;;;;8.23;4.13;;;12.90;64.60;;;;;;5072553;28;20028;-77
2021/05/11 03:40:31;;;;;;;5.40;4.00;;;13.00;64.10;;;;;;5067820;28;20420;-77
2021/05/11 03:43:10;;;;;;;5.93;4.15;;;13.20;63.30;;;;;;5052388;28;20028;-77
2021/05/11 03:45:40;;;;;;;7.75;3.72;;;13.30;63.30;;;;;;5052710;28;20378;-77
2021/05/11 03:48:06;;;;;;;6.10;4.10;;;13.40;63.10;;;;;;5054639;28;20029;-77
2021/05/11 03:50:32;;;;;;;5.15;3.58;;;13.50;62.40;;;;;;5056964;28;20032;-77
2021/05/11 03:52:57;;;;;;;5.13;4.60;;;13.70;61.60;;;;;;5055376;28;20577;-77
2021/05/11 03:55:23;;;;;;;5.63;3.80;;;13.80;61.40;;;;;;5055509;28;20025;-77
2021/05/11 03:57:49;;;;;;;5.63;3.80;;;14.00;61.00;;;;;;5056596;28;20028;-77
2021/05/11 04:00:15;;;;;;;5.35;3.40;;;14.10;61.10;;;;;;5055172;28;20504;-77
2021/05/11 04:02:41;;;;;;;6.13;3.35;;;14.20;60.70;;;;;;5056380;28;20036;-77
2021/05/11 04:05:10;;;;;;;4.05;3.55;;;14.20;60.60;;;;;;5056370;28;20037;-77
2021/05/11 04:07:41;;;;;;;7.35;4.03;;;14.30;60.40;;;;;;5054426;28;20475;-77
2021/05/11 04:10:16;;;;;;;4.38;3.35;;;14.40;60.80;;;;;;5056309;28;20499;-77
2021/05/11 04:17:54;;;;;;;5.65;4.00;;;14.80;60.60;;;;;;5068453;28;20448;-77
2021/05/11 04:20:20;;;;;;;6.82;4.18;;;15.00;59.90;;;;;;5076095;28;20024;-77
2021/05/11 04:22:45;;;;;;;5.72;3.80;;;15.10;59.40;;;;;;5074862;28;20028;-77
2021/05/11 04:25:11;;;;;;;6.15;3.47;;;15.30;59.20;;;;;;5074686;28;20078;-77
2021/05/11 04:27:37;;;;;;;7.97;3.92;;;15.40;58.70;;;;;;5074400;28;20135;-77
2021/05/11 04:30:04;;;;;;;4.72;3.58;;;15.60;58.40;;;;;;5075969;28;20103;-78
2021/05/11 04:32:30;;;;;;;6.60;3.95;;;15.70;58.90;;;;;;5064057;28;20025;-78
2021/05/11 04:34:56;;;;;;;4.93;4.10;;;15.70;58.60;;;;;;5055836;28;20422;-78
2021/05/11 04:37:21;;;;;;;5.93;3.45;;;15.80;58.30;;;;;;5054431;28;20020;-78
2021/05/11 04:39:47;;;;;;;3.95;3.28;;;15.90;58.50;;;;;;5055770;28;20480;-78
2021/05/11 04:42:12;;;;;;;4.80;3.60;;;15.90;58.50;;;;;;5073108;28;20035;-77
2021/05/11 04:44:39;;;;;;;8.40;4.00;;;16.00;57.80;;;;;;5073908;28;20132;-77
2021/05/11 04:47:13;;;;;;;6.78;3.65;;;16.10;58.60;;;;;;5074131;28;20386;-77
2021/05/11 04:49:38;;;;;;;5.75;3.78;;;16.20;58.40;;;;;;5054392;28;20041;-77
2021/05/11 04:52:06;;;;;;;5.80;3.88;;;16.30;58.60;;;;;;5070924;28;20025;-77
2021/05/11 04:54:31;;;;;;;4.63;3.78;;;16.40;58.30;;;;;;5055453;28;20099;-77
2021/05/11 04:56:57;;;;;;;9.25;3.70;;;16.40;58.60;;;;;;5055390;28;20049;-77
2021/05/11 04:59:23;;;;;;;6.65;3.95;;;16.40;59.10;;;;;;5064573;28;20102;-77
2021/05/11 05:01:51;;;;;;;7.47;3.83;;;16.40;59.20;;;;;;5066494;28;20056;-77
2021/05/11 05:04:17;;;;;;;4.97;3.20;;;16.50;58.60;;;;;;5065793;28;20378;-77
2021/05/11 05:06:42;;;;;;;4.05;3.22;;;16.60;58.70;;;;;;5063794;28;20025;-77
2021/05/11 05:09:08;;;;;;;5.53;3.70;;;16.70;57.20;;;;;;5064454;28;20060;-77
2021/05/11 05:11:39;;;;;;;4.45;3.20;;;16.90;56.40;;;;;;5060353;28;20395;-77
2021/05/11 05:14:06;;;;;;;5.15;3.65;;;17.00;56.50;;;;;;5070444;28;20025;-77
2021/05/11 05:16:32;;;;;;;5.43;3.40;;;17.20;56.30;;;;;;5065706;28;20508;-77
2021/05/11 05:18:58;;;;;;;4.57;3.40;;;17.30;56.30;;;;;;5073855;28;20017;-78
2021/05/11 05:21:23;;;;;;;6.57;3.60;;;17.40;56.20;;;;;;5075157;28;20020;-77
2021/05/11 05:23:59;;;;;;;4.55;3.17;;;17.60;55.90;;;;;;5074911;28;20032;-77
2021/05/11 05:26:27;;;;;;;6.53;3.55;;;17.70;55.40;;;;;;5073912;28;20096;-78
2021/05/11 05:28:53;;;;;;;4.90;3.30;;;17.70;56.30;;;;;;5074630;28;20040;-78
2021/05/11 05:31:18;;;;;;;6.03;3.65;;;17.80;57.10;;;;;;5074849;28;20390;-78
2021/05/11 05:33:44;;;;;;;4.78;3.60;;;17.80;57.50;;;;;;5074676;28;20618;-78
2021/05/11 05:36:10;;;;;;;5.28;3.33;;;18.00;56.80;;;;;;5074765;28;20483;-78
2021/05/11 05:38:41;;;;;;;6.15;3.28;;;18.10;57.30;;;;;;5071584;28;20040;-78
2021/05/11 05:41:12;;;;;;;6.45;3.20;;;18.30;57.10;;;;;;5062275;28;20017;-79
2021/05/11 05:43:37;;;;;;;5.15;2.88;;;18.40;57.00;;;;;;5071667;28;20021;-78
2021/05/11 05:46:03;;;;;;;5.57;3.25;;;18.70;53.60;;;;;;5069353;28;20039;-78
2021/05/11 05:48:29;;;;;;;5.85;3.03;;;18.80;52.70;;;;;;5058103;28;20041;-78
2021/05/11 05:50:58;;;;;;;2.95;2.70;;;18.90;52.20;;;;;;5062153;28;20013;-77
2021/05/11 05:53:34;;;;;;;5.47;2.85;;;19.10;51.40;;;;;;5070149;28;20020;-78
2021/05/11 05:56:03;;;;;;;6.00;2.70;;;19.20;51.90;;;;;;5066554;28;20529;-77
2021/05/11 05:58:29;;;;;;;6.10;2.70;;;19.40;51.30;;;;;;5063821;28;20104;-77
2021/05/11 06:00:59;;;;;;;3.55;2.70;;;19.50;51.10;;;;;;5063539;28;20099;-78
2021/05/11 06:03:33;;;;;;;4.47;2.50;;;19.60;50.50;;;;;;5061414;28;20029;-78
2021/05/11 06:05:59;;;;;;;3.72;2.55;;;19.80;50.30;;;;;;5062183;28;20073;-78
2021/05/11 06:08:28;;;;;;;3.67;2.47;;;19.90;49.40;;;;;;5062497;28;20186;-77
2021/05/11 06:11:01;;;;;;;6.47;2.80;;;20.10;49.10;;;;;;5060757;28;20020;-78
2021/05/11 06:13:36;;;;;;;6.03;2.78;;;20.20;48.80;;;;;;5062418;28;20029;-78
2021/05/11 06:18:47;;;;;;;3.08;2.47;;;20.60;48.20;;;;;;5063325;28;20032;-78
2021/05/11 06:21:12;;;;;;;4.30;2.00;;;20.70;48.20;;;;;;5062421;28;20017;-78
2021/05/11 06:23:38;;;;;;;2.53;2.33;;;20.80;47.20;;;;;;5063824;28;20615;-78
2021/05/11 06:26:04;;;;;;;3.80;2.75;;;20.90;47.40;;;;;;5063555;28;20024;-78
2021/05/11 06:28:31;;;;;;;2.45;2.25;;;21.00;46.50;;;;;;5061987;28;20037;-78
2021/05/11 06:30:56;;;;;;;2.50;2.30;;;21.10;46.20;;;;;;5063985;28;20021;-78
2021/05/11 06:33:22;;;;;;;6.45;3.00;;;21.20;46.40;;;;;;5063008;28;20036;-79
2021/05/11 06:35:51;;;;;;;3.78;2.15;;;21.40;46.90;;;;;;5062367;28;20040;-78
2021/05/11 06:38:17;;;;;;;3.45;2.50;;;21.50;45.30;;;;;;5067844;28;20044;-78
2021/05/11 06:40:43;;;;;;;5.45;2.63;;;21.50;44.40;;;;;;5071649;28;20418;-78
2021/05/11 06:43:08;;;;;;;3.70;2.38;;;21.70;44.90;;;;;;5071755;28;20066;-79
2021/05/11 06:55:28;;;;;;;4.93;2.00;;;22.40;42.40;;;;;;5069855;28;20082;-78
2021/05/11 06:57:54;;;;;;;2.67;2.22;;;22.50;42.00;;;;;;5068977;28;20390;-78
2021/05/11 07:00:20;;;;;;;2.67;1.63;;;22.50;41.40;;;;;;5070148;28;20504;-78
2021/05/11 07:02:51;;;;;;;2.58;2.38;;;22.50;41.40;;;;;;5068846;28;20377;-78
2021/05/11 07:05:17;;;;;;;2.17;1.83;;;22.70;41.50;;;;;;5067678;28;20032;-78
2021/05/11 07:07:44;;;;;;;2.00;1.83;;;22.80;40.50;;;;;;5068704;28;20108;-77
2021/05/11 07:10:22;;;;;;;2.15;1.70;;;22.90;40.30;;;;;;5067376;28;20020;-78
2021/05/11 07:15:32;;;;;;;2.50;1.73;;;23.10;40.20;;;;;;5071241;28;20038;-78
2021/05/11 07:18:24;;;;;;;2.53;1.90;;;23.20;39.50;;;;;;5071053;28;20016;-78
2021/05/11 07:20:57;;;;;;;3.67;1.60;;;23.30;39.20;;;;;;5068007;28;20037;-78
2021/05/11 07:23:23;;;;;;;;;;;23.40;38.60;;;;;;5069016;28;20062;-78
2021/05/11 07:28:36;;;;;;;3.08;1.75;;;23.60;38.70;;;;;;5070896;28;20482;-78
2021/05/11 07:31:04;;;;;;;2.45;1.65;;;23.70;38.60;;;;;;5067255;28;20111;-78
2021/05/11 07:33:51;;;;;;;2.38;1.95;;;24.00;38.60;;;;;;5071195;28;20074;-78
2021/05/11 07:36:17;;;;;;;2.22;2.03;;;24.00;38.50;;;;;;5068553;28;20385;-78
2021/05/11 07:38:45;;;;;;;4.15;1.85;;;24.20;39.50;;;;;;5070164;28;20059;-78
2021/05/11 07:41:13;;;;;;;1.80;1.50;;;24.20;38.90;;;;;;5067038;28;20054;-78
2021/05/11 07:43:41;;;;;;;2.25;1.77;;;24.10;38.00;;;;;;5068388;28;20035;-78
2021/05/11 08:15:51;;;;;;;3.30;2.47;;;24.60;38.50;;;;;;5070632;28;20110;-77
2021/05/11 08:18:37;;;;;;;2.88;2.20;;;24.80;38.90;;;;;;5070315;28;20371;-77
2021/05/11 08:29:32;;;;;;;7.90;2.97;;;24.70;39.50;;;;;;5049125;28;20049;-77
2021/05/11 08:31:58;;;;;;;5.47;2.13;;;24.60;40.20;;;;;;5065546;28;20028;-77
2021/05/11 08:34:24;;;;;;;4.20;2.50;;;24.70;39.90;;;;;;5073660;28;20038;-77
2021/05/11 08:36:51;;;;;;;5.22;2.72;;;24.60;40.10;;;;;;5072404;28;20486;-77
2021/05/11 08:39:16;;;;;;;3.08;2.13;;;24.70;41.20;;;;;;5074992;28;20039;-77
2021/05/11 08:41:42;;;;;;;3.45;2.28;;;24.70;41.30;;;;;;5075184;28;20025;-78
2021/05/11 08:44:13;;;;;;;3.10;2.60;;;24.80;41.20;;;;;;5074943;28;20439;-77
2021/05/11 08:46:41;;;;;;;3.58;2.20;;;24.80;41.70;;;;;;5074004;28;20029;-77
2021/05/11 08:49:07;;;;;;;4.13;2.30;;;24.80;41.50;;;;;;5074077;28;20485;-77
2021/05/11 08:51:46;;;;;;;4.03;2.70;;;24.80;40.90;;;;;;5074047;28;20062;-77
2021/05/11 09:05:16;;;;;;;2.65;1.98;;;25.30;38.40;;;;;;5075420;28;20075;-77
2021/05/11 10:49:40;;;;;;;8.50;3.05;;;28.40;36.20;;;;;;5062592;28;20448;-78
2021/05/11 10:52:13;;;;;;;9.88;2.60;;;28.30;36.00;;;;;;5061589;28;20430;-78
2021/05/11 10:54:53;;;;;;;3.28;1.98;;;28.30;35.90;;;;;;5059461;28;20051;-78
2021/05/11 10:57:36;;;;;;;5.05;2.33;;;28.30;35.80;;;;;;5061864;28;20074;-78
2021/05/11 11:03:21;;;;;;;3.05;2.10;;;28.30;36.00;;;;;;5063483;28;20033;-78
2021/05/11 11:05:57;;;;;;;3.45;2.38;;;28.00;37.00;;;;;;5077749;28;20032;-78
2021/05/11 11:08:26;;;;;;;5.88;2.67;;;28.10;38.00;;;;;;5062303;28;20060;-78
2021/05/11 11:11:12;;;;;;;2.78;2.55;;;28.10;37.90;;;;;;5060190;28;20070;-78
2021/05/11 11:13:46;;;;;;;3.97;2.42;;;28.20;38.10;;;;;;5062108;28;20027;-78
2021/05/11 11:16:13;;;;;;;4.28;2.92;;;28.40;37.70;;;;;;5067061;28;20452;-78
2021/05/11 11:18:39;;;;;;;3.88;2.38;;;28.30;37.50;;;;;;5066105;28;20381;-78
2021/05/11 11:21:23;;;;;;;4.88;2.35;;;28.30;37.80;;;;;;5064996;28;20013;-77
2021/05/11 11:23:53;;;;;;;4.43;2.60;;;28.30;37.90;;;;;;5065474;28;20071;-77
2021/05/11 11:26:40;;;;;;;3.63;2.50;;;28.30;38.40;;;;;;5066288;28;20029;-78
2021/05/11 11:29:07;;;;;;;3.88;2.45;;;28.40;37.00;;;;;;5059716;28;20025;-78
2021/05/11 11:31:39;;;;;;;3.67;2.10;;;28.60;38.10;;;;;;5058109;28;20017;-78
2021/05/11 11:34:16;;;;;;;;;;;28.60;38.00;;;;;;5052910;28;20032;-77
2021/05/11 11:36:56;;;;;;;3.75;2.35;;;28.40;36.90;;;;;;5052619;28;20344;-78
2021/05/11 11:39:27;;;;;;;4.05;2.30;;;28.40;36.70;;;;;;5059388;28;20036;-78
2021/05/11 11:41:54;;;;;;;2.77;2.57;;;28.30;37.00;;;;;;5061375;28;20104;-77
2021/05/11 11:44:22;;;;;;;3.85;2.58;;;28.10;37.40;;;;;;5060828;28;20429;-78
2021/05/11 11:47:08;;;;;;;5.22;2.22;;;28.30;38.20;;;;;;5062850;28;20096;-74
2021/05/11 11:49:37;;;;;;;7.90;2.95;;;28.40;37.30;;;;;;5061558;28;20056;-74
2021/05/11 11:52:11;;;;;;;2.30;2.10;;;28.60;38.10;;;;;;5062607;28;20020;-74
2021/05/11 11:54:42;;;;;;;4.22;2.40;;;28.70;35.70;;;;;;5061124;28;20371;-74
2021/05/11 12:00:09;;;;;;;3.70;2.92;;;28.80;37.40;;;;;;5061002;28;20132;-74
2021/05/11 12:02:37;;;;;;;6.43;2.55;;;29.00;36.30;;;;;;5061804;28;20412;-74
2021/05/11 12:05:13;;;;;;;4.93;2.13;;;29.20;36.10;;;;;;5062901;28;20119;-74
2021/05/11 12:10:25;;;;;;;4.95;2.60;;;29.30;35.40;;;;;;5066913;28;20046;-74
2021/05/11 12:12:51;;;;;;;4.32;2.28;;;29.30;35.50;;;;;;5064464;28;20021;-75
2021/05/11 12:15:21;;;;;;;5.95;2.08;;;29.50;35.30;;;;;;5069202;28;20067;-75
2021/05/11 12:18:17;;;;;;;2.42;2.20;;;29.40;35.60;;;;;;5059899;28;20025;-74
2021/05/11 12:20:43;;;;;;;7.35;2.08;;;29.30;35.40;;;;;;5054693;28;20025;-74
2021/05/11 12:23:15;;;;;;;8.20;2.25;;;29.10;35.00;;;;;;5053824;28;20021;-73
2021/05/11 12:25:55;;;;;;;8.85;2.80;;;29.10;35.90;;;;;;5071306;28;20029;-74
2021/05/11 12:28:32;;;;;;;3.45;2.28;;;29.10;35.30;;;;;;5074633;28;20040;-74
2021/05/11 12:30:58;;;;;;;4.25;1.95;;;29.10;34.90;;;;;;5075841;28;20032;-74
2021/05/11 12:33:35;;;;;;;3.90;2.00;;;29.00;35.10;;;;;;5071879;28;20019;-74
2021/05/11 12:36:03;;;;;;;3.58;2.25;;;29.10;35.60;;;;;;5074247;28;20031;-75
2021/05/11 12:38:31;;;;;;;6.75;2.20;;;29.10;35.50;;;;;;5073664;28;20056;-73
2021/05/11 12:43:45;;;;;;;6.47;2.70;;;29.10;35.90;;;;;;5075314;28;20433;-74
2021/05/11 12:46:31;;;;;;;5.35;2.13;;;29.10;35.90;;;;;;5075659;28;20024;-74
2021/05/11 12:49:15;;;;;;;4.18;1.92;;;29.00;35.20;;;;;;5075206;28;20541;-74
2021/05/11 12:51:46;;;;;;;3.25;2.05;;;29.10;35.20;;;;;;5075696;28;20033;-74
2021/05/11 12:54:42;;;;;;;3.55;2.13;;;29.10;35.50;;;;;;5073685;28;20417;-74
2021/05/11 12:57:14;;;;;;;3.08;2.35;;;29.20;35.20;;;;;;5072168;28;20063;-74
2021/05/11 13:03:01;;;;;;;8.63;2.37;;;29.30;35.60;;;;;;5074335;28;20353;-74
2021/05/11 13:29:54;;;;;;;5.78;2.13;;;29.20;35.10;;;;;;5074880;28;20036;-74
2021/05/11 13:32:29;;;;;;;4.07;2.08;;;29.20;34.90;;;;;;5074486;28;20031;-74
2021/05/11 13:34:58;;;;;;;3.85;2.08;;;29.10;34.60;;;;;;5073207;28;20017;-73
2021/05/11 13:37:27;;;;;;;5.82;2.45;;;29.10;34.40;;;;;;5072791;28;20393;-73
2021/05/11 13:39:54;;;;;;;5.93;2.25;;;29.10;35.20;;;;;;5074675;28;20147;-73
2021/05/11 13:42:19;;;;;;;3.40;2.50;;;29.10;35.00;;;;;;5074323;28;20055;-73
2021/05/11 13:44:45;;;;;;;6.25;2.58;;;29.10;34.30;;;;;;5073018;28;20119;-74
2021/05/11 13:47:10;;;;;;;3.63;2.05;;;29.20;35.30;;;;;;5073138;28;20111;-73
2021/05/11 13:49:36;;;;;;;4.68;2.10;;;29.10;34.70;;;;;;5074314;28;20474;-73
2021/05/11 13:52:02;;;;;;;5.20;2.88;;;29.00;34.30;;;;;;5072213;28;20070;-73
2021/05/11 13:54:28;;;;;;;2.28;2.08;;;29.10;34.40;;;;;;5073013;28;20359;-74
2021/05/11 14:04:47;;;;;;;3.95;2.15;;;29.10;35.00;;;;;;5074038;28;20516;-73
2021/05/11 14:07:12;;;;;;;3.25;2.50;;;29.10;35.30;;;;;;5072007;28;20021;-73
2021/05/11 14:09:38;;;;;;;2.35;1.75;;;29.10;35.10;;;;;;5073809;28;20111;-74
2021/05/11 14:12:04;;;;;;;5.03;1.95;;;29.20;35.10;;;;;;5072689;28;20497;-73
2021/05/11 14:14:30;;;;;;;3.72;1.80;;;29.10;35.00;;;;;;5071120;28;20021;-74
2021/05/11 14:16:56;;;;;;;8.50;2.70;;;29.00;34.30;;;;;;5071931;28;20036;-73
2021/05/11 14:19:22;;;;;;;6.22;2.65;;;29.10;34.50;;;;;;5070131;28;20122;-73
2021/05/11 14:21:47;;;;;;;5.68;2.30;;;29.10;34.30;;;;;;5073379;28;20478;-74
2021/05/11 14:24:13;;;;;;;5.10;1.77;;;29.10;34.50;;;;;;5073625;28;20535;-74
2021/05/11 14:26:40;;;;;;;8.05;2.20;;;29.10;34.80;;;;;;5072348;28;20028;-75
2021/05/11 14:29:07;;;;;;;5.85;2.58;;;29.10;34.30;;;;;;5073347;28;20066;-73
2021/05/11 14:31:32;;;;;;;2.75;1.90;;;29.20;34.80;;;;;;5069612;28;20071;-74
2021/05/11 14:33:58;;;;;;;4.47;2.40;;;29.20;35.00;;;;;;5052838;28;20021;-73
2021/05/11 14:36:24;;;;;;;7.32;2.85;;;29.30;34.80;;;;;;5051606;28;20016;-73
2021/05/11 14:38:50;;;;;;;2.15;1.95;;;29.40;34.60;;;;;;5053375;28;20040;-73
2021/05/11 14:41:16;;;;;;;5.15;2.08;;;29.20;34.30;;;;;;5051857;28;20317;-73
2021/05/11 14:43:42;;;;;;;2.50;2.20;;;29.10;34.40;;;;;;5050963;28;20017;-73
2021/05/11 14:46:10;;;;;;;7.63;2.30;;;29.20;34.20;;;;;;5066938;28;20458;-74
2021/05/11 14:48:36;;;;;;;3.90;2.03;;;29.10;33.90;;;;;;5072732;28;20064;-73
2021/05/11 14:51:04;;;;;;;3.55;2.13;;;29.10;34.30;;;;;;5072340;28;20101;-74
2021/05/11 14:53:31;;;;;;;5.43;2.33;;;29.00;34.90;;;;;;5072868;28;20043;-73
2021/05/11 14:55:57;;;;;;;5.90;1.75;;;29.00;35.60;;;;;;5072819;28;20391;-73
2021/05/11 14:58:22;;;;;;;4.20;2.28;;;28.80;34.90;;;;;;5072698;28;20032;-72
2021/05/11 15:00:48;;;;;;;11.10;2.72;;;28.90;36.10;;;;;;5070723;28;20013;-74
2021/05/11 15:03:14;;;;;;;3.42;2.30;;;28.80;34.80;;;;;;5072924;28;20028;-73
2021/05/11 15:05:41;;;;;;;6.82;2.05;;;28.80;35.20;;;;;;5072586;28;20036;-73
2021/05/11 15:08:09;;;;;;;2.50;2.30;;;28.70;34.90;;;;;;5072867;28;20466;-74
2021/05/11 15:10:35;;;;;;;4.43;2.42;;;28.60;34.80;;;;;;5072480;28;20029;-73
2021/05/11 15:13:02;;;;;;;3.22;2.25;;;28.60;35.20;;;;;;5071598;28;20493;-73
2021/05/11 15:15:29;;;;;;;4.60;1.90;;;28.60;35.50;;;;;;5062148;28;20026;-73
2021/05/11 15:20:21;;;;;;;4.03;2.38;;;28.60;35.20;;;;;;5057851;28;20166;-74
2021/05/11 15:22:51;;;;;;;3.97;2.05;;;28.50;35.10;;;;;;5061170;28;20051;-73
2021/05/11 15:25:19;;;;;;;6.13;3.05;;;28.50;35.40;;;;;;5058123;28;20454;-73
2021/05/11 15:27:45;;;;;;;5.55;2.20;;;28.40;35.70;;;;;;5058878;28;20025;-73
2021/05/11 15:30:11;;;;;;;3.53;1.95;;;28.40;35.70;;;;;;5051872;28;20033;-74
2021/05/11 15:32:55;;;;;;;6.45;2.25;;;28.30;35.70;;;;;;5051101;28;20084;-72
2021/05/11 15:35:32;;;;;;;4.63;2.78;;;28.40;35.90;;;;;;5064018;28;20085;-73
2021/05/11 15:38:00;;;;;;;5.18;2.08;;;28.30;36.10;;;;;;5069473;28;20020;-73
2021/05/11 15:40:28;;;;;;;3.08;2.00;;;28.30;35.80;;;;;;5071032;28;20034;-74
2021/05/11 15:42:57;;;;;;;7.85;2.60;;;28.20;35.20;;;;;;5055447;28;20025;-73
2021/05/11 15:45:24;;;;;;;5.00;2.50;;;28.20;35.40;;;;;;5049658;28;20017;-73
2021/05/11 15:47:55;;;;;;;4.93;2.42;;;28.20;35.40;;;;;;5051226;28;20055;-73
2021/05/11 15:50:25;;;;;;;3.75;2.25;;;28.20;35.40;;;;;;5071246;28;20044;-73
2021/05/11 15:52:52;;;;;;;4.78;2.55;;;28.10;35.20;;;;;;5072438;28;20048;-73
2021/05/11 15:55:18;;;;;;;3.65;2.22;;;28.00;35.50;;;;;;5071296;28;20020;-74
2021/05/11 15:57:44;;;;;;;5.22;2.63;;;28.00;36.30;;;;;;5070790;28;20370;-74
2021/05/11 16:00:10;;;;;;;4.82;2.35;;;28.00;37.00;;;;;;5070897;28;20123;-74
2021/05/11 16:02:36;;;;;;;5.22;2.30;;;27.90;36.50;;;;;;5072398;28;20028;-75
2021/05/11 16:05:03;;;;;;;4.15;2.40;;;27.90;37.20;;;;;;5071712;28;20166;-74
2021/05/11 16:07:29;;;;;;;6.65;2.60;;;27.80;37.60;;;;;;5072303;28;20039;-74
2021/05/11 16:09:55;;;;;;;9.40;3.33;;;27.80;37.60;;;;;;5072089;28;20037;-75
2021/05/11 16:12:21;;;;;;;6.50;2.83;;;27.70;38.50;;;;;;5065034;28;20023;-75
2021/05/11 16:14:46;;;;;;;4.78;3.03;;;27.80;39.20;;;;;;5060473;28;20013;-74
2021/05/11 16:17:12;;;;;;;7.07;2.75;;;27.70;39.90;;;;;;5059863;28;20463;-74
2021/05/11 16:19:37;;;;;;;6.78;2.58;;;27.60;39.30;;;;;;5059048;28;20026;-75
2021/05/11 16:22:03;;;;;;;5.88;2.50;;;27.60;39.40;;;;;;5058859;28;20026;-74
2021/05/11 16:24:29;;;;;;;5.90;2.45;;;27.60;39.40;;;;;;5061908;28;20563;-75
2021/05/11 16:26:54;;;;;;;4.88;2.67;;;27.40;39.90;;;;;;5058752;28;20402;-74
2021/05/11 16:29:20;;;;;;;4.50;3.00;;;27.30;40.10;;;;;;5061267;28;20024;-75
2021/05/11 16:31:47;;;;;;;5.57;3.22;;;27.30;39.80;;;;;;5061536;28;20470;-74
2021/05/11 16:34:13;;;;;;;3.67;2.45;;;27.20;40.20;;;;;;5061850;28;20540;-74
2021/05/11 16:36:39;;;;;;;3.42;2.58;;;27.10;41.40;;;;;;5059416;28;20431;-75
2021/05/11 16:39:05;;;;;;;4.20;3.75;;;27.10;40.90;;;;;;5059588;28;20029;-74
2021/05/11 16:41:31;;;;;;;8.70;2.83;;;27.00;41.20;;;;;;5068615;28;20028;-76
2021/05/11 16:43:58;;;;;;;7.75;2.92;;;27.00;41.00;;;;;;5069780;28;20103;-75
2021/05/11 16:46:24;;;;;;;8.57;2.65;;;26.90;40.60;;;;;;5069534;28;20456;-75
2021/05/11 16:48:50;;;;;;;4.85;2.60;;;26.90;40.80;;;;;;5069493;28;20132;-74
2021/05/11 16:51:16;;;;;;;6.25;2.90;;;26.80;40.60;;;;;;5067408;28;20115;-75
2021/05/11 16:53:41;;;;;;;6.75;2.60;;;26.80;41.00;;;;;;5068735;28;20059;-74
2021/05/11 16:56:09;;;;;;;4.15;2.95;;;26.70;41.10;;;;;;5072023;28;20070;-74
2021/05/11 16:58:34;;;;;;;4.05;2.58;;;26.60;40.70;;;;;;5066470;28;20020;-75
2021/05/11 17:01:00;;;;;;;8.07;3.45;;;26.60;40.70;;;;;;5063281;28;20359;-75
2021/05/11 17:03:26;;;;;;;4.20;2.53;;;26.60;40.70;;;;;;5066289;28;20047;-74
2021/05/11 17:05:51;;;;;;;3.60;3.20;;;26.50;40.80;;;;;;5063628;28;20537;-75
2021/05/11 17:08:17;;;;;;;3.33;2.92;;;26.40;40.90;;;;;;5062002;28;20025;-75
2021/05/11 17:10:43;;;;;;;4.15;2.80;;;26.30;40.70;;;;;;5064728;28;20032;-76
2021/05/11 17:13:09;;;;;;;4.32;3.08;;;26.40;41.20;;;;;;5065389;28;20064;-74
2021/05/11 17:15:35;;;;;;;7.15;3.40;;;26.30;41.10;;;;;;5064046;28;20021;-75
2021/05/11 17:18:03;;;;;;;4.63;2.70;;;26.20;41.40;;;;;;5064649;28;20016;-75
2021/05/11 17:20:30;;;;;;;6.43;3.22;;;26.20;41.40;;;;;;5061102;28;20029;-75
2021/05/11 17:22:57;;;;;;;4.70;2.90;;;26.10;41.70;;;;;;5067982;28;20031;-74
2021/05/11 17:25:23;;;;;;;5.03;2.85;;;26.00;41.90;;;;;;5073956;28;20127;-74
2021/05/11 17:27:51;;;;;;;2.92;2.72;;;26.00;42.10;;;;;;5075167;28;20043;-74
2021/05/11 17:30:17;;;;;;;3.85;3.00;;;25.80;41.50;;;;;;5073698;28;20457;-75
2021/05/11 17:32:44;;;;;;;3.97;2.85;;;25.80;41.80;;;;;;5073798;28;20017;-73
2021/05/11 17:35:11;;;;;;;4.85;2.88;;;25.80;42.00;;;;;;5074545;28;20012;-74